This is the latest recevied weather packets stored in our database for station/object K8CWG. If no packets are shown the sender has not sent any weather packets the latest 10 day(s).
| Time | Temp. | Humidity | Pressure | Rain* | Wind** | Luminosity | Snow |
|---|---|---|---|---|---|---|---|
| 1777371302 | 15° C | 98% | 1008.5 hPa | 0 mm | - | - | - |
| 1777370402 | 15° C | 98% | 1008.5 hPa | 0 mm | - | - | - |
| 1777369501 | 15° C | 98% | 1008.3 hPa | 0 mm | - | - | - |
| 1777368602 | 14.44° C | 98% | 1008.4 hPa | 0 mm | - | - | - |
| 1777367703 | 14.44° C | 98% | 1008.2 hPa | 0 mm | - | - | - |
| 1777366807 | 14.44° C | 98% | 1007.9 hPa | 0 mm | - | - | - |
| 1777365901 | 14.44° C | 98% | 1007.5 hPa | 0 mm | - | - | - |
| 1777365001 | 14.44° C | 98% | 1006.6 hPa | 0 mm | - | - | - |
| 1777364101 | 14.44° C | 98% | 1006.1 hPa | 0 mm | - | - | - |
| 1777363202 | 14.44° C | 98% | 1005.4 hPa | 0.25 mm | - | - | - |
| 1777362301 | 14.44° C | 98% | 1004.8 hPa | 1.52 mm | - | - | - |
| 1777361401 | 14.44° C | 98% | 1004.6 hPa | 2.79 mm | - | - | - |
| 1777360501 | 15° C | 98% | 1004.9 hPa | 4.57 mm | - | - | - |
| 1777359602 | 15° C | 98% | 1007.6 hPa | 7.11 mm | - | - | - |
| 1777357802 | 15° C | 97% | 1010.8 hPa | 16.76 mm | - | - | - |
| 1777356901 | 15° C | 97% | 1011 hPa | 16.51 mm | - | - | - |
| 1777356005 | 15.56° C | 97% | 1011.7 hPa | 16.26 mm | - | - | - |
| 1777354200 | 15.56° C | 97% | 1008.8 hPa | 10.16 mm | - | - | - |
| 1777353301 | 15.56° C | 96% | 1008.5 hPa | 11.68 mm | - | - | - |
| 1777352402 | 15.56° C | 96% | 1009 hPa | 9.91 mm | - | - | - |
| 1777350601 | 15.56° C | 95% | 1009.6 hPa | 5.84 mm | - | - | - |
| 1777349701 | 15.56° C | 95% | 1009.1 hPa | 4.57 mm | - | - | - |
| 1777348804 | 15.56° C | 95% | 1008.5 hPa | 3.3 mm | - | - | - |
| 1777345203 | 16.11° C | 96% | 1008.3 hPa | 4.32 mm | - | - | - |
| 1777341603 | 16.11° C | 97% | 1011.9 hPa | 6.35 mm | - | - | - |
* Rain latest hour (hover to see other rain measurements)
** Current wind speed in m/s (hover to see current wind gust speed)